sensor_id;sensor_type;location;lat;lon;timestamp;pressure;altitude;pressure_sealevel;temperature;humidity
48846;BME280;34665;51.886;5.436;2023-03-21T00:02:03;101498.91;;;15.68;100.00
48846;BME280;34665;51.886;5.436;2023-03-21T00:04:29;101485.81;;;15.71;100.00
48846;BME280;34665;51.886;5.436;2023-03-21T00:06:55;101485.47;;;15.54;100.00
48846;BME280;34665;51.886;5.436;2023-03-21T00:09:20;101502.75;;;15.99;100.00
48846;BME280;34665;51.886;5.436;2023-03-21T00:11:47;101492.84;;;15.79;100.00
48846;BME280;34665;51.886;5.436;2023-03-21T00:14:12;101488.44;;;15.32;100.00
48846;BME280;34665;51.886;5.436;2023-03-21T00:16:39;101498.44;;;15.25;100.00
48846;BME280;34665;51.886;5.436;2023-03-21T00:19:05;101481.44;;;15.77;100.00
48846;BME280;34665;51.886;5.436;2023-03-21T00:21:31;101484.91;;;15.39;100.00
48846;BME280;34665;51.886;5.436;2023-03-21T00:23:57;101488.78;;;15.63;100.00
48846;BME280;34665;51.886;5.436;2023-03-21T00:26:23;101484.59;;;15.74;100.00
48846;BME280;34665;51.886;5.436;2023-03-21T00:28:49;101477.81;;;15.58;100.00
48846;BME280;34665;51.886;5.436;2023-03-21T00:31:14;101477.16;;;15.62;100.00
48846;BME280;34665;51.886;5.436;2023-03-21T00:33:40;101480.94;;;15.48;100.00
48846;BME280;34665;51.886;5.436;2023-03-21T00:36:06;101480.09;;;15.54;100.00
48846;BME280;34665;51.886;5.436;2023-03-21T00:38:32;101480.09;;;15.54;100.00
48846;BME280;34665;51.886;5.436;2023-03-21T00:40:58;101473.84;;;15.60;100.00
48846;BME280;34665;51.886;5.436;2023-03-21T00:43:25;101465.13;;;15.58;100.00
48846;BME280;34665;51.886;5.436;2023-03-21T00:45:54;101463.06;;;15.54;100.00
48846;BME280;34665;51.886;5.436;2023-03-21T00:48:19;101459.28;;;15.68;100.00
48846;BME280;34665;51.886;5.436;2023-03-21T00:50:46;101465.25;;;15.84;100.00
48846;BME280;34665;51.886;5.436;2023-03-21T00:53:13;101473.50;;;15.96;100.00
48846;BME280;34665;51.886;5.436;2023-03-21T00:55:39;101453.88;;;15.75;100.00
48846;BME280;34665;51.886;5.436;2023-03-21T00:58:05;101450.09;;;16.22;100.00
48846;BME280;34665;51.886;5.436;2023-03-21T01:00:31;101457.66;;;15.60;100.00
48846;BME280;34665;51.886;5.436;2023-03-21T01:02:57;101458.44;;;15.68;100.00
48846;BME280;34665;51.886;5.436;2023-03-21T01:05:26;101450.75;;;15.78;100.00
48846;BME280;34665;51.886;5.436;2023-03-21T01:08:11;101440.25;;;15.63;100.00
48846;BME280;34665;51.886;5.436;2023-03-21T01:10:40;101446.88;;;15.60;100.00
48846;BME280;34665;51.886;5.436;2023-03-21T01:13:06;101439.69;;;15.86;100.00
48846;BME280;34665;51.886;5.436;2023-03-21T01:15:32;101437.25;;;15.78;100.00
48846;BME280;34665;51.886;5.436;2023-03-21T01:17:58;101436.84;;;16.13;100.00
48846;BME280;34665;51.886;5.436;2023-03-21T01:20:23;101425.44;;;15.79;100.00
48846;BME280;34665;51.886;5.436;2023-03-21T01:22:50;101437.00;;;15.86;100.00
48846;BME280;34665;51.886;5.436;2023-03-21T01:25:16;101438.44;;;15.96;100.00
48846;BME280;34665;51.886;5.436;2023-03-21T01:27:42;101431.84;;;15.91;100.00
48846;BME280;34665;51.886;5.436;2023-03-21T01:30:08;101426.66;;;15.90;100.00
48846;BME280;34665;51.886;5.436;2023-03-21T01:32:34;101423.50;;;15.86;100.00
48846;BME280;34665;51.886;5.436;2023-03-21T01:34:59;101423.31;;;15.88;100.00
48846;BME280;34665;51.886;5.436;2023-03-21T01:37:25;101420.31;;;16.10;100.00
48846;BME280;34665;51.886;5.436;2023-03-21T01:39:50;101417.84;;;16.01;100.00
48846;BME280;34665;51.886;5.436;2023-03-21T01:42:16;101424.81;;;15.77;100.00
48846;BME280;34665;51.886;5.436;2023-03-21T01:44:54;101419.78;;;15.87;100.00
48846;BME280;34665;51.886;5.436;2023-03-21T01:47:22;101406.13;;;16.14;100.00
48846;BME280;34665;51.886;5.436;2023-03-21T01:50:10;101402.34;;;15.97;100.00
48846;BME280;34665;51.886;5.436;2023-03-21T01:52:45;101404.63;;;15.86;100.00
48846;BME280;34665;51.886;5.436;2023-03-21T01:55:18;101406.63;;;15.66;100.00
48846;BME280;34665;51.886;5.436;2023-03-21T01:57:59;101394.00;;;15.98;100.00
48846;BME280;34665;51.886;5.436;2023-03-21T02:00:29;101396.78;;;16.17;100.00
48846;BME280;34665;51.886;5.436;2023-03-21T02:03:08;101389.75;;;16.41;100.00
48846;BME280;34665;51.886;5.436;2023-03-21T02:05:48;101384.16;;;16.61;100.00
48846;BME280;34665;51.886;5.436;2023-03-21T02:08:16;101384.84;;;16.31;100.00
48846;BME280;34665;51.886;5.436;2023-03-21T02:10:42;101379.56;;;16.18;100.00
48846;BME280;34665;51.886;5.436;2023-03-21T02:13:13;101381.44;;;16.17;100.00
48846;BME280;34665;51.886;5.436;2023-03-21T02:16:44;101380.91;;;16.02;100.00
48846;BME280;34665;51.886;5.436;2023-03-21T02:18:41;101379.59;;;16.37;100.00
48846;BME280;34665;51.886;5.436;2023-03-21T02:21:27;101378.28;;;16.20;100.00
48846;BME280;34665;51.886;5.436;2023-03-21T02:26:51;101364.06;;;16.32;100.00
48846;BME280;34665;51.886;5.436;2023-03-21T02:29:32;101364.00;;;16.13;100.00
48846;BME280;34665;51.886;5.436;2023-03-21T02:38:04;101358.50;;;16.01;100.00
48846;BME280;34665;51.886;5.436;2023-03-21T02:40:37;101355.88;;;15.95;100.00
48846;BME280;34665;51.886;5.436;2023-03-21T02:46:04;101350.25;;;16.22;100.00
48846;BME280;34665;51.886;5.436;2023-03-21T02:48:40;101343.97;;;16.28;100.00
48846;BME280;34665;51.886;5.436;2023-03-21T02:51:08;101345.09;;;15.95;100.00
48846;BME280;34665;51.886;5.436;2023-03-21T02:53:38;101342.16;;;15.96;100.00
48846;BME280;34665;51.886;5.436;2023-03-21T02:56:06;101348.22;;;15.91;100.00
48846;BME280;34665;51.886;5.436;2023-03-21T02:58:40;101347.94;;;16.00;100.00
48846;BME280;34665;51.886;5.436;2023-03-21T03:01:07;101345.31;;;15.15;100.00
48846;BME280;34665;51.886;5.436;2023-03-21T03:03:39;101343.66;;;16.17;100.00
48846;BME280;34665;51.886;5.436;2023-03-21T03:06:12;101339.59;;;15.76;100.00
48846;BME280;34665;51.886;5.436;2023-03-21T03:09:00;101341.50;;;16.01;100.00
48846;BME280;34665;51.886;5.436;2023-03-21T03:11:38;101347.03;;;15.81;100.00
48846;BME280;34665;51.886;5.436;2023-03-21T03:19:10;101331.50;;;15.76;100.00
48846;BME280;34665;51.886;5.436;2023-03-21T03:24:49;101331.81;;;16.18;100.00
48846;BME280;34665;51.886;5.436;2023-03-21T03:26:56;101328.97;;;16.32;100.00
48846;BME280;34665;51.886;5.436;2023-03-21T03:29:26;101334.19;;;16.08;100.00
48846;BME280;34665;51.886;5.436;2023-03-21T03:32:04;101333.22;;;16.21;100.00
48846;BME280;34665;51.886;5.436;2023-03-21T03:34:35;101332.72;;;16.31;100.00
48846;BME280;34665;51.886;5.436;2023-03-21T03:37:04;101331.03;;;16.11;100.00
48846;BME280;34665;51.886;5.436;2023-03-21T03:39:42;101325.88;;;16.10;100.00
48846;BME280;34665;51.886;5.436;2023-03-21T03:42:22;101323.78;;;16.12;100.00
48846;BME280;34665;51.886;5.436;2023-03-21T03:44:54;101314.75;;;16.25;100.00
48846;BME280;34665;51.886;5.436;2023-03-21T03:47:26;101310.19;;;16.00;100.00
48846;BME280;34665;51.886;5.436;2023-03-21T03:49:57;101318.44;;;16.05;100.00
48846;BME280;34665;51.886;5.436;2023-03-21T03:52:28;101317.94;;;16.15;100.00
48846;BME280;34665;51.886;5.436;2023-03-21T03:55:04;101309.91;;;16.08;100.00
48846;BME280;34665;51.886;5.436;2023-03-21T03:57:34;101308.84;;;16.09;100.00
48846;BME280;34665;51.886;5.436;2023-03-21T04:00:01;101320.53;;;16.47;100.00
48846;BME280;34665;51.886;5.436;2023-03-21T04:02:46;101312.22;;;16.48;100.00
48846;BME280;34665;51.886;5.436;2023-03-21T04:05:16;101309.28;;;16.06;100.00
48846;BME280;34665;51.886;5.436;2023-03-21T04:07:46;101311.53;;;16.09;100.00
48846;BME280;34665;51.886;5.436;2023-03-21T04:10:13;101312.16;;;16.11;100.00
48846;BME280;34665;51.886;5.436;2023-03-21T04:12:40;101316.44;;;16.19;100.00
48846;BME280;34665;51.886;5.436;2023-03-21T04:15:17;101300.94;;;16.33;100.00
48846;BME280;34665;51.886;5.436;2023-03-21T04:17:52;101307.44;;;16.25;100.00
48846;BME280;34665;51.886;5.436;2023-03-21T04:20:17;101300.50;;;16.17;100.00
48846;BME280;34665;51.886;5.436;2023-03-21T04:22:43;101296.16;;;16.54;100.00
48846;BME280;34665;51.886;5.436;2023-03-21T04:25:09;101293.63;;;16.40;100.00
48846;BME280;34665;51.886;5.436;2023-03-21T04:27:35;101293.91;;;16.32;100.00
48846;BME280;34665;51.886;5.436;2023-03-21T04:30:21;101298.44;;;16.38;100.00
48846;BME280;34665;51.886;5.436;2023-03-21T04:33:09;101291.69;;;16.03;100.00
48846;BME280;34665;51.886;5.436;2023-03-21T04:35:37;101288.47;;;16.76;100.00
48846;BME280;34665;51.886;5.436;2023-03-21T04:38:05;101293.84;;;16.57;100.00
48846;BME280;34665;51.886;5.436;2023-03-21T04:40:30;101298.13;;;16.46;100.00
48846;BME280;34665;51.886;5.436;2023-03-21T04:42:56;101284.31;;;16.55;100.00
48846;BME280;34665;51.886;5.436;2023-03-21T04:45:21;101280.44;;;16.51;100.00
48846;BME280;34665;51.886;5.436;2023-03-21T04:47:47;101282.25;;;16.13;100.00
48846;BME280;34665;51.886;5.436;2023-03-21T04:50:13;101279.66;;;16.25;100.00
48846;BME280;34665;51.886;5.436;2023-03-21T04:52:40;101271.03;;;15.90;100.00
48846;BME280;34665;51.886;5.436;2023-03-21T04:55:05;101275.47;;;16.29;100.00
48846;BME280;34665;51.886;5.436;2023-03-21T04:57:35;101270.25;;;16.09;100.00
48846;BME280;34665;51.886;5.436;2023-03-21T05:00:02;101276.63;;;16.14;100.00
48846;BME280;34665;51.886;5.436;2023-03-21T05:02:29;101273.53;;;15.85;100.00
48846;BME280;34665;51.886;5.436;2023-03-21T05:04:55;101274.72;;;16.22;100.00
48846;BME280;34665;51.886;5.436;2023-03-21T05:07:22;101270.91;;;16.04;100.00
48846;BME280;34665;51.886;5.436;2023-03-21T05:09:50;101263.91;;;16.22;100.00
48846;BME280;34665;51.886;5.436;2023-03-21T05:12:16;101268.06;;;16.61;100.00
48846;BME280;34665;51.886;5.436;2023-03-21T05:14:43;101271.94;;;16.47;100.00
48846;BME280;34665;51.886;5.436;2023-03-21T05:17:09;101270.22;;;16.53;100.00
48846;BME280;34665;51.886;5.436;2023-03-21T05:19:35;101266.16;;;16.81;100.00
48846;BME280;34665;51.886;5.436;2023-03-21T05:22:03;101258.09;;;16.43;100.00
48846;BME280;34665;51.886;5.436;2023-03-21T05:24:29;101250.88;;;16.18;100.00
48846;BME280;34665;51.886;5.436;2023-03-21T05:26:55;101257.50;;;16.41;100.00
48846;BME280;34665;51.886;5.436;2023-03-21T05:29:28;101265.72;;;16.46;100.00
48846;BME280;34665;51.886;5.436;2023-03-21T05:31:59;101256.25;;;16.37;100.00
48846;BME280;34665;51.886;5.436;2023-03-21T05:34:24;101258.53;;;16.40;100.00
48846;BME280;34665;51.886;5.436;2023-03-21T05:36:51;101246.16;;;16.51;100.00
48846;BME280;34665;51.886;5.436;2023-03-21T05:39:18;101253.75;;;16.61;100.00
48846;BME280;34665;51.886;5.436;2023-03-21T05:41:57;101257.97;;;16.87;100.00
48846;BME280;34665;51.886;5.436;2023-03-21T05:44:23;101251.63;;;16.44;100.00
48846;BME280;34665;51.886;5.436;2023-03-21T05:46:49;101247.97;;;16.57;100.00
48846;BME280;34665;51.886;5.436;2023-03-21T05:49:15;101247.41;;;16.11;100.00
48846;BME280;34665;51.886;5.436;2023-03-21T05:51:42;101248.47;;;16.29;100.00
48846;BME280;34665;51.886;5.436;2023-03-21T05:54:11;101254.28;;;16.51;100.00
48846;BME280;34665;51.886;5.436;2023-03-21T05:56:42;101259.75;;;16.94;100.00
48846;BME280;34665;51.886;5.436;2023-03-21T05:59:12;101255.22;;;16.57;100.00
48846;BME280;34665;51.886;5.436;2023-03-21T06:01:41;101250.50;;;16.33;100.00
48846;BME280;34665;51.886;5.436;2023-03-21T06:04:12;101247.88;;;16.45;100.00
48846;BME280;34665;51.886;5.436;2023-03-21T06:06:38;101243.28;;;16.65;100.00
48846;BME280;34665;51.886;5.436;2023-03-21T06:09:04;101242.09;;;16.60;100.00
48846;BME280;34665;51.886;5.436;2023-03-21T06:11:31;101247.19;;;16.69;100.00
48846;BME280;34665;51.886;5.436;2023-03-21T06:14:17;101241.28;;;16.60;100.00
48846;BME280;34665;51.886;5.436;2023-03-21T06:16:47;101240.53;;;16.34;100.00
48846;BME280;34665;51.886;5.436;2023-03-21T06:19:12;101245.19;;;16.64;100.00
48846;BME280;34665;51.886;5.436;2023-03-21T06:21:56;101247.28;;;16.62;100.00
48846;BME280;34665;51.886;5.436;2023-03-21T06:24:22;101255.47;;;16.55;100.00
48846;BME280;34665;51.886;5.436;2023-03-21T06:26:47;101247.44;;;16.48;100.00
48846;BME280;34665;51.886;5.436;2023-03-21T06:29:13;101256.72;;;16.71;100.00
48846;BME280;34665;51.886;5.436;2023-03-21T06:31:40;101255.09;;;16.52;100.00
48846;BME280;34665;51.886;5.436;2023-03-21T06:34:06;101252.84;;;16.48;100.00
48846;BME280;34665;51.886;5.436;2023-03-21T06:36:31;101256.78;;;16.65;100.00
48846;BME280;34665;51.886;5.436;2023-03-21T06:38:57;101261.06;;;16.54;100.00
48846;BME280;34665;51.886;5.436;2023-03-21T06:41:24;101258.53;;;16.40;100.00
48846;BME280;34665;51.886;5.436;2023-03-21T06:43:58;101263.94;;;16.40;100.00
48846;BME280;34665;51.886;5.436;2023-03-21T06:46:25;101263.44;;;16.06;100.00
48846;BME280;34665;51.886;5.436;2023-03-21T06:48:51;101253.84;;;15.85;100.00
48846;BME280;34665;51.886;5.436;2023-03-21T06:51:17;101253.56;;;16.37;100.00
48846;BME280;34665;51.886;5.436;2023-03-21T06:54:02;101256.41;;;16.24;100.00
48846;BME280;34665;51.886;5.436;2023-03-21T06:56:36;101254.44;;;16.12;100.00
48846;BME280;34665;51.886;5.436;2023-03-21T06:59:02;101256.09;;;16.13;100.00
48846;BME280;34665;51.886;5.436;2023-03-21T07:01:44;101251.59;;;16.07;100.00
48846;BME280;34665;51.886;5.436;2023-03-21T07:04:11;101255.78;;;16.03;100.00
48846;BME280;34665;51.886;5.436;2023-03-21T07:06:37;101255.06;;;16.33;100.00
48846;BME280;34665;51.886;5.436;2023-03-21T07:09:03;101253.84;;;16.10;100.00
48846;BME280;34665;51.886;5.436;2023-03-21T07:11:31;101259.88;;;16.31;100.00
48846;BME280;34665;51.886;5.436;2023-03-21T07:13:57;101262.81;;;16.04;100.00
48846;BME280;34665;51.886;5.436;2023-03-21T07:16:23;101254.09;;;16.09;100.00
48846;BME280;34665;51.886;5.436;2023-03-21T07:18:50;101267.41;;;16.03;100.00
48846;BME280;34665;51.886;5.436;2023-03-21T07:21:16;101270.31;;;16.02;100.00
48846;BME280;34665;51.886;5.436;2023-03-21T07:23:42;101269.59;;;15.88;100.00
48846;BME280;34665;51.886;5.436;2023-03-21T07:26:08;101257.91;;;15.69;100.00
48846;BME280;34665;51.886;5.436;2023-03-21T07:28:35;101273.66;;;15.72;100.00
48846;BME280;34665;51.886;5.436;2023-03-21T07:31:04;101271.88;;;15.84;100.00
48846;BME280;34665;51.886;5.436;2023-03-21T07:33:31;101272.47;;;15.86;100.00
48846;BME280;34665;51.886;5.436;2023-03-21T07:35:59;101268.97;;;15.86;100.00
48846;BME280;34665;51.886;5.436;2023-03-21T07:38:25;101269.66;;;16.07;100.00
48846;BME280;34665;51.886;5.436;2023-03-21T07:40:50;101274.75;;;16.15;100.00
48846;BME280;34665;51.886;5.436;2023-03-21T07:43:16;101272.78;;;16.47;100.00
48846;BME280;34665;51.886;5.436;2023-03-21T07:45:43;101276.53;;;16.02;100.00
48846;BME280;34665;51.886;5.436;2023-03-21T07:48:09;101263.91;;;15.71;100.00
48846;BME280;34665;51.886;5.436;2023-03-21T07:50:37;101259.00;;;15.86;100.00
48846;BME280;34665;51.886;5.436;2023-03-21T07:53:05;101252.09;;;15.72;100.00
48846;BME280;34665;51.886;5.436;2023-03-21T07:55:31;101254.09;;;16.09;100.00
48846;BME280;34665;51.886;5.436;2023-03-21T07:57:59;101245.09;;;15.89;100.00
48846;BME280;34665;51.886;5.436;2023-03-21T08:00:25;101243.28;;;16.09;100.00
48846;BME280;34665;51.886;5.436;2023-03-21T08:02:52;101241.41;;;16.09;100.00
48846;BME280;34665;51.886;5.436;2023-03-21T08:05:22;101242.06;;;15.79;100.00
48846;BME280;34665;51.886;5.436;2023-03-21T08:07:49;101236.34;;;15.69;100.00
48846;BME280;34665;51.886;5.436;2023-03-21T08:10:14;101252.94;;;15.66;100.00
48846;BME280;34665;51.886;5.436;2023-03-21T08:12:40;101245.56;;;15.54;100.00
48846;BME280;34665;51.886;5.436;2023-03-21T08:15:05;101245.25;;;15.69;100.00
48846;BME280;34665;51.886;5.436;2023-03-21T08:17:31;101238.69;;;16.09;100.00
48846;BME280;34665;51.886;5.436;2023-03-21T08:19:56;101243.22;;;16.15;100.00
48846;BME280;34665;51.886;5.436;2023-03-21T08:22:22;101237.19;;;15.95;100.00
48846;BME280;34665;51.886;5.436;2023-03-21T08:24:48;101238.13;;;16.63;100.00
48846;BME280;34665;51.886;5.436;2023-03-21T08:27:13;101235.88;;;16.60;100.00
48846;BME280;34665;51.886;5.436;2023-03-21T08:29:39;101236.00;;;16.84;100.00
48846;BME280;34665;51.886;5.436;2023-03-21T08:32:06;101220.44;;;16.48;100.00
48846;BME280;34665;51.886;5.436;2023-03-21T08:34:31;101228.69;;;16.54;100.00
48846;BME280;34665;51.886;5.436;2023-03-21T08:36:57;101225.84;;;16.67;100.00
48846;BME280;34665;51.886;5.436;2023-03-21T08:39:22;101221.50;;;16.47;100.00
48846;BME280;34665;51.886;5.436;2023-03-21T08:41:49;101219.06;;;16.76;100.00
48846;BME280;34665;51.886;5.436;2023-03-21T08:44:15;101221.34;;;16.42;100.00
48846;BME280;34665;51.886;5.436;2023-03-21T08:46:41;101219.00;;;16.46;100.00
48846;BME280;34665;51.886;5.436;2023-03-21T08:49:06;101216.88;;;16.67;100.00
48846;BME280;34665;51.886;5.436;2023-03-21T08:51:32;101211.41;;;16.73;100.00
48846;BME280;34665;51.886;5.436;2023-03-21T08:53:57;101219.09;;;16.88;100.00
48846;BME280;34665;51.886;5.436;2023-03-21T08:56:23;101210.75;;;16.59;100.00
48846;BME280;34665;51.886;5.436;2023-03-21T08:58:48;101201.34;;;16.50;100.00
48846;BME280;34665;51.886;5.436;2023-03-21T09:01:14;101200.63;;;16.36;100.00
48846;BME280;34665;51.886;5.436;2023-03-21T09:03:40;101203.94;;;16.57;100.00
48846;BME280;34665;51.886;5.436;2023-03-21T09:06:06;101198.09;;;16.90;100.00
48846;BME280;34665;51.886;5.436;2023-03-21T09:08:38;101198.28;;;16.77;100.00
48846;BME280;34665;51.886;5.436;2023-03-21T09:11:05;101191.69;;;16.73;100.00
48846;BME280;34665;51.886;5.436;2023-03-21T09:13:31;101198.16;;;17.02;100.00
48846;BME280;34665;51.886;5.436;2023-03-21T09:15:56;101197.41;;;16.65;100.00
48846;BME280;34665;51.886;5.436;2023-03-21T09:18:26;101190.88;;;16.72;100.00
48846;BME280;34665;51.886;5.436;2023-03-21T09:21:09;101194.19;;;16.56;100.00
48846;BME280;34665;51.886;5.436;2023-03-21T09:23:39;101179.28;;;16.84;100.00
48846;BME280;34665;51.886;5.436;2023-03-21T09:26:05;101183.47;;;16.80;100.00
48846;BME280;34665;51.886;5.436;2023-03-21T09:28:32;101184.22;;;16.56;100.00
48846;BME280;34665;51.886;5.436;2023-03-21T09:30:58;101185.88;;;16.57;100.00
48846;BME280;34665;51.886;5.436;2023-03-21T09:33:24;101184.13;;;17.24;100.00
48846;BME280;34665;51.886;5.436;2023-03-21T09:35:50;101183.13;;;16.76;100.00
48846;BME280;34665;51.886;5.436;2023-03-21T09:38:15;101170.41;;;16.65;100.00
48846;BME280;34665;51.886;5.436;2023-03-21T09:40:50;101173.69;;;16.67;100.00
48846;BME280;34665;51.886;5.436;2023-03-21T09:45:51;101170.56;;;17.00;100.00
48846;BME280;34665;51.886;5.436;2023-03-21T09:48:22;101170.56;;;16.82;100.00
48846;BME280;34665;51.886;5.436;2023-03-21T09:50:54;101156.53;;;16.61;100.00
48846;BME280;34665;51.886;5.436;2023-03-21T09:53:28;101147.13;;;16.94;100.00
48846;BME280;34665;51.886;5.436;2023-03-21T09:55:58;101167.53;;;17.09;100.00
48846;BME280;34665;51.886;5.436;2023-03-21T10:01:02;101151.66;;;17.00;100.00
48846;BME280;34665;51.886;5.436;2023-03-21T10:03:32;101153.34;;;16.95;100.00
48846;BME280;34665;51.886;5.436;2023-03-21T10:06:05;101153.25;;;17.44;100.00
48846;BME280;34665;51.886;5.436;2023-03-21T10:08:36;101154.75;;;17.16;100.00
48846;BME280;34665;51.886;5.436;2023-03-21T10:11:05;101151.69;;;16.94;100.00
48846;BME280;34665;51.886;5.436;2023-03-21T10:13:38;101159.03;;;17.47;100.00
48846;BME280;34665;51.886;5.436;2023-03-21T10:16:14;101164.06;;;17.68;100.00
48846;BME280;34665;51.886;5.436;2023-03-21T10:18:41;101154.97;;;17.26;100.00
48846;BME280;34665;51.886;5.436;2023-03-21T10:21:07;101150.34;;;17.57;100.00
48846;BME280;34665;51.886;5.436;2023-03-21T10:23:36;101161.25;;;16.96;100.00
48846;BME280;34665;51.886;5.436;2023-03-21T10:26:02;101147.81;;;17.20;100.00
48846;BME280;34665;51.886;5.436;2023-03-21T10:28:36;101154.09;;;17.80;100.00
48846;BME280;34665;51.886;5.436;2023-03-21T10:31:03;101145.38;;;17.78;100.00
48846;BME280;34665;51.886;5.436;2023-03-21T10:33:34;101146.69;;;17.75;100.00
48846;BME280;34665;51.886;5.436;2023-03-21T10:36:10;101150.19;;;17.76;100.00
48846;BME280;34665;51.886;5.436;2023-03-21T10:38:36;101137.84;;;18.04;100.00
48846;BME280;34665;51.886;5.436;2023-03-21T10:41:04;101129.03;;;17.73;100.00
48846;BME280;34665;51.886;5.436;2023-03-21T10:43:35;101128.69;;;17.81;100.00
48846;BME280;34665;51.886;5.436;2023-03-21T10:46:06;101131.50;;;17.86;100.00
48846;BME280;34665;51.886;5.436;2023-03-21T10:48:35;101134.03;;;18.29;100.00
48846;BME280;34665;51.886;5.436;2023-03-21T10:51:01;101153.63;;;17.59;100.00
48846;BME280;34665;51.886;5.436;2023-03-21T10:53:28;101142.06;;;17.64;100.00
48846;BME280;34665;51.886;5.436;2023-03-21T10:55:55;101153.25;;;17.80;100.00
48846;BME280;34665;51.886;5.436;2023-03-21T10:58:23;101164.06;;;17.80;100.00
48846;BME280;34665;51.886;5.436;2023-03-21T11:01:00;101156.66;;;17.51;100.00
48846;BME280;34665;51.886;5.436;2023-03-21T11:03:30;101131.78;;;17.06;100.00
48846;BME280;34665;51.886;5.436;2023-03-21T11:06:06;101160.78;;;17.42;100.00
48846;BME280;34665;51.886;5.436;2023-03-21T11:08:46;101144.41;;;17.13;100.00
48846;BME280;34665;51.886;5.436;2023-03-21T11:11:18;101141.97;;;17.35;100.00
48846;BME280;34665;51.886;5.436;2023-03-21T11:13:44;101129.16;;;17.78;100.00
48846;BME280;34665;51.886;5.436;2023-03-21T11:16:11;101133.00;;;18.18;100.00
48846;BME280;34665;51.886;5.436;2023-03-21T11:18:41;101133.16;;;18.40;100.00
48846;BME280;34665;51.886;5.436;2023-03-21T11:21:07;101131.81;;;18.26;100.00
48846;BME280;34665;51.886;5.436;2023-03-21T11:23:34;101138.41;;;18.18;100.00
48846;BME280;34665;51.886;5.436;2023-03-21T11:26:02;101124.44;;;18.67;100.00
48846;BME280;34665;51.886;5.436;2023-03-21T11:28:37;101117.09;;;18.97;100.00
48846;BME280;34665;51.886;5.436;2023-03-21T11:31:03;101117.94;;;18.51;100.00
48846;BME280;34665;51.886;5.436;2023-03-21T11:33:43;101124.72;;;18.83;100.00
48846;BME280;34665;51.886;5.436;2023-03-21T11:38:41;101131.06;;;18.88;100.00
48846;BME280;34665;51.886;5.436;2023-03-21T11:41:07;101122.81;;;18.37;100.00
48846;BME280;34665;51.886;5.436;2023-03-21T11:43:37;101117.34;;;18.20;100.00
48846;BME280;34665;51.886;5.436;2023-03-21T11:48:28;101116.28;;;18.50;100.00
48846;BME280;34665;51.886;5.436;2023-03-21T11:51:00;101116.94;;;18.28;100.00
48846;BME280;34665;51.886;5.436;2023-03-21T12:01:20;101101.63;;;18.34;100.00
48846;BME280;34665;51.886;5.436;2023-03-21T12:09:01;101093.56;;;18.51;100.00
48846;BME280;34665;51.886;5.436;2023-03-21T12:16:52;101098.34;;;18.78;100.00
48846;BME280;34665;51.886;5.436;2023-03-21T12:24:40;101084.59;;;18.80;100.00
48846;BME280;34665;51.886;5.436;2023-03-21T12:33:03;101085.78;;;19.18;100.00
48846;BME280;34665;51.886;5.436;2023-03-21T12:35:37;101082.03;;;19.81;100.00
48846;BME280;34665;51.886;5.436;2023-03-21T12:38:17;101077.28;;;19.31;100.00
48846;BME280;34665;51.886;5.436;2023-03-21T12:45:53;101071.03;;;18.62;100.00
48846;BME280;34665;51.886;5.436;2023-03-21T12:48:21;101059.66;;;19.12;100.00
48846;BME280;34665;51.886;5.436;2023-03-21T12:50:48;101055.34;;;18.82;100.00
48846;BME280;34665;51.886;5.436;2023-03-21T12:56:01;101063.78;;;19.54;100.00
48846;BME280;34665;51.886;5.436;2023-03-21T12:58:29;101054.16;;;19.85;100.00
48846;BME280;34665;51.886;5.436;2023-03-21T13:00:55;101045.69;;;19.82;100.00
48846;BME280;34665;51.886;5.436;2023-03-21T13:03:35;101045.22;;;20.95;98.12
48846;BME280;34665;51.886;5.436;2023-03-21T13:06:02;101044.41;;;23.72;84.74
48846;BME280;34665;51.886;5.436;2023-03-21T13:08:36;101055.75;;;24.05;74.95
48846;BME280;34665;51.886;5.436;2023-03-21T13:11:02;101063.88;;;24.60;69.10
48846;BME280;34665;51.886;5.436;2023-03-21T13:13:37;101063.13;;;25.19;65.81
48846;BME280;34665;51.886;5.436;2023-03-21T13:16:16;101065.63;;;25.40;63.86
48846;BME280;34665;51.886;5.436;2023-03-21T13:23:45;101032.28;;;24.04;63.36
48846;BME280;34665;51.886;5.436;2023-03-21T13:26:18;101034.88;;;23.69;65.90
48846;BME280;34665;51.886;5.436;2023-03-21T13:28:44;101034.53;;;23.81;63.13
48846;BME280;34665;51.886;5.436;2023-03-21T13:31:25;101033.03;;;25.14;58.86
48846;BME280;34665;51.886;5.436;2023-03-21T13:33:52;101035.88;;;25.33;56.41
48846;BME280;34665;51.886;5.436;2023-03-21T13:36:22;101034.84;;;24.65;56.74
48846;BME280;34665;51.886;5.436;2023-03-21T13:38:49;101030.38;;;23.94;58.91
48846;BME280;34665;51.886;5.436;2023-03-21T13:41:33;101034.97;;;23.99;59.54
48846;BME280;34665;51.886;5.436;2023-03-21T13:54:00;101020.03;;;21.10;63.76
48846;BME280;34665;51.886;5.436;2023-03-21T13:56:26;101024.97;;;21.18;65.56
48846;BME280;34665;51.886;5.436;2023-03-21T13:58:53;101011.06;;;21.62;64.63
48846;BME280;34665;51.886;5.436;2023-03-21T14:03:45;100997.88;;;21.97;65.11
48846;BME280;34665;51.886;5.436;2023-03-21T14:06:11;100990.03;;;22.32;63.41
48846;BME280;34665;51.886;5.436;2023-03-21T14:08:36;101013.88;;;21.78;64.31
48846;BME280;34665;51.886;5.436;2023-03-21T14:11:05;100999.97;;;21.69;64.91
48846;BME280;34665;51.886;5.436;2023-03-21T14:13:31;101000.19;;;21.62;64.48
48846;BME280;34665;51.886;5.436;2023-03-21T14:16:03;100994.53;;;21.80;66.06